»·PEaware :: WAT3512 KTUS-KELP

WAT3512 :: KTUS-KELP

FLIGHT INFORMATION

Flight Status: Arrived
Operator:
Walker Air Transport
More flights by this operator :: More flights under this callsign
Pilot: Richard A. (43314)
Aircraft: EMBRAER PHENOM 300
(E55P)
More flights by this aircraft type
Origin: KTUS Tucson Intl
United States
Destination: KELP El Paso Intl
United States
More flights between these airports :: More routes between these airports
Route: WLDKT3 SSO TEEES MOLLY5
File this flight plan on PilotEdge
Remarks: RMK / SIMBRIEF
Altitude:
(Current/Filed)
27,000ft
Speed:
(Current/Filed)
435kts
Departed: 11-Sep-23 11:19 AM
Arrived: 11-Sep-23 12:05 PM
Distance/Time
Traveled:
233nm/0:46
Distance/Time
To Go:
Arrived

Flight Plot

Page will automatically refresh every two minutes.

Flight plan parsing failed; only flown route is shown


Map Options




Map Legend


Flown Route
Filed Route
Departure Airport
Arrival Airport
Navaid (VOR, NDB)
Fix

Horizontal Profiles

Position Reports

Time Latitude Longitude Heading Altitude Ground
Speed
11-Sep-23 10:38 32.129890 -110.940478 89 2574ft 0kts
11-Sep-23 10:39 32.129890 -110.940478 89 2574ft 0kts
11-Sep-23 10:40 32.129890 -110.940478 89 2574ft 0kts
11-Sep-23 10:41 32.129890 -110.940478 89 2574ft 0kts
11-Sep-23 10:42 32.129890 -110.940478 89 2574ft 0kts
11-Sep-23 10:43 32.129890 -110.940478 89 2574ft 0kts
11-Sep-23 10:44 32.129890 -110.940478 89 2574ft 0kts
11-Sep-23 10:45 32.129890 -110.940478 89 2574ft 0kts
11-Sep-23 10:46 32.129890 -110.940478 89 2574ft 0kts
11-Sep-23 10:47 32.129890 -110.940478 89 2574ft 0kts
11-Sep-23 10:48 32.129890 -110.940478 89 2574ft 0kts
11-Sep-23 10:49 32.129890 -110.940478 89 2574ft 0kts
11-Sep-23 10:50 32.129890 -110.940478 89 2574ft 0kts
11-Sep-23 10:51 32.129890 -110.940478 89 2574ft 0kts
11-Sep-23 10:52 32.129890 -110.940478 89 2574ft 0kts
11-Sep-23 10:53 32.129890 -110.940478 89 2574ft 0kts
11-Sep-23 10:54 32.129890 -110.940478 89 2574ft 0kts
11-Sep-23 10:55 32.129890 -110.940478 89 2574ft 0kts
11-Sep-23 10:56 32.129890 -110.940478 89 2574ft 0kts
11-Sep-23 10:57 32.129890 -110.940478 89 2574ft 0kts
11-Sep-23 10:58 32.129890 -110.940478 89 2574ft 0kts
11-Sep-23 10:59 32.129890 -110.940478 89 2574ft 0kts
11-Sep-23 11:00 32.129890 -110.940478 89 2574ft 0kts
11-Sep-23 11:01 32.129890 -110.940478 89 2574ft 0kts
11-Sep-23 11:02 32.129890 -110.940478 89 2574ft 0kts
11-Sep-23 11:03 32.129890 -110.940478 89 2574ft 0kts
11-Sep-23 11:04 32.129777 -110.941636 252 2570ft 13kts
11-Sep-23 11:05 32.126593 -110.945432 224 2570ft 17kts
11-Sep-23 11:06 32.124065 -110.946192 135 2576ft 7kts
11-Sep-23 11:07 32.121596 -110.943299 134 2586ft 17kts
11-Sep-23 11:08 32.118117 -110.939220 135 2600ft 16kts
11-Sep-23 11:09 32.114830 -110.935380 133 2612ft 17kts
11-Sep-23 11:10 32.111929 -110.931963 134 2618ft 12kts
11-Sep-23 11:11 32.109968 -110.929666 134 2626ft 10kts
11-Sep-23 11:12 32.106817 -110.925998 134 2638ft 14kts
11-Sep-23 11:13 32.104653 -110.923449 138 2645ft 10kts
11-Sep-23 11:14 32.103760 -110.922407 135 2649ft 0kts
11-Sep-23 11:15 32.103760 -110.922407 135 2649ft 0kts
11-Sep-23 11:16 32.103760 -110.922407 135 2649ft 0kts
11-Sep-23 11:17 32.103061 -110.922385 222 2649ft 0kts
11-Sep-23 11:18 32.104380 -110.925641 314 2639ft 66kts
11-Sep-23 11:19 32.133254 -110.957638 312 5122ft 177kts
11-Sep-23 11:20 32.170883 -111.003529 310 9347ft 205kts
11-Sep-23 11:21 32.211983 -111.052223 313 13563ft 223kts
11-Sep-23 11:22 32.267435 -111.023819 39 17625ft 259kts
11-Sep-23 11:23 32.305883 -110.945289 86 18029ft 316kts
11-Sep-23 11:24 32.313353 -110.837200 85 18015ft 341kts
11-Sep-23 11:25 32.321291 -110.723422 84 18233ft 362kts
11-Sep-23 11:26 32.329477 -110.604725 84 21845ft 372kts
11-Sep-23 11:27 32.326543 -110.478505 92 24476ft 396kts
11-Sep-23 11:28 32.320991 -110.349255 92 27579ft 396kts
11-Sep-23 11:29 32.314964 -110.211813 92 28280ft 453kts
11-Sep-23 11:30 32.307958 -110.056165 92 28297ft 481kts
11-Sep-23 11:31 32.300664 -109.898858 92 28285ft 483kts
11-Sep-23 11:32 32.293136 -109.740552 92 28287ft 483kts
11-Sep-23 11:33 32.285388 -109.582133 92 28278ft 485kts
11-Sep-23 11:34 32.277479 -109.423404 92 28264ft 486kts
11-Sep-23 11:35 32.269280 -109.263624 92 28272ft 486kts
11-Sep-23 11:36 32.269970 -109.105879 88 29446ft 471kts
11-Sep-23 11:37 32.270507 -108.955105 88 30967ft 456kts
11-Sep-23 11:38 32.270857 -108.809246 88 32914ft 431kts
11-Sep-23 11:39 32.270996 -108.669512 87 34251ft 426kts
11-Sep-23 11:40 32.271019 -108.527250 87 34271ft 433kts
11-Sep-23 11:41 32.270910 -108.383870 87 34224ft 445kts
11-Sep-23 11:42 32.268225 -108.235552 96 34222ft 464kts
11-Sep-23 11:43 32.250683 -108.083023 96 33180ft 470kts
11-Sep-23 11:44 32.232933 -107.928662 96 31186ft 480kts
11-Sep-23 11:45 32.214840 -107.772977 96 29212ft 479kts
11-Sep-23 11:46 32.197057 -107.619391 96 27176ft 461kts
11-Sep-23 11:47 32.180143 -107.474731 96 24842ft 435kts
11-Sep-23 11:48 32.163790 -107.336471 97 22654ft 419kts
11-Sep-23 11:49 32.147911 -107.203417 97 20465ft 404kts
11-Sep-23 11:50 32.132430 -107.074809 97 18326ft 391kts
11-Sep-23 11:51 32.115477 -106.954540 104 17600ft 353kts
11-Sep-23 11:52 32.092265 -106.848301 104 15724ft 329kts
11-Sep-23 11:53 32.068427 -106.745887 105 13919ft 309kts
11-Sep-23 11:54 32.046632 -106.656290 106 13802ft 264kts
11-Sep-23 11:55 32.026130 -106.572814 105 12556ft 270kts
11-Sep-23 11:56 32.003309 -106.488230 125 11663ft 272kts
11-Sep-23 11:57 31.951132 -106.431213 108 10686ft 268kts
11-Sep-23 11:58 31.926339 -106.351486 126 9796ft 248kts
11-Sep-23 11:59 31.886908 -106.285029 127 8552ft 247kts
11-Sep-23 12:00 31.843814 -106.236843 172 7120ft 204kts
11-Sep-23 12:01 31.799928 -106.265609 246 5653ft 181kts
11-Sep-23 12:02 31.799329 -106.317900 263 4706ft 140kts
11-Sep-23 12:03 31.800756 -106.362294 269 3981ft 132kts
11-Sep-23 12:04 31.800793 -106.381244 183 3935ft 9kts
11-Sep-23 12:05 31.799922 -106.379781 90 3938ft 7kts
11-Sep-23 12:06 31.799079 -106.377550 182 3939ft 11kts
11-Sep-23 12:07 31.797378 -106.376839 84 3941ft 0kts
11-Sep-23 12:08 31.797378 -106.376839 84 3941ft 0kts

Navigation Log

Ident Type
Flight plan parsing failed, navigation log unavailable